Time;durP1;ratioP1;P1;durP2;ratioP2;P2;SDS_P1;SDS_P2;PMS_P1;PMS_P2;Temp;Humidity;BMP_temperature;BMP_pressure;BME280_temperature;BME280_humidity;BME280_pressure;Samples;Min_cycle;Max_cycle;Signal;HPM_P1;HPM_P2
2021/03/17 00:00:57;;;;;;;;;;;7.30;83.50;;;;;;4990587;28;20074;-58
2021/03/17 00:03:23;;;;;;;;;;;7.30;83.50;;;;;;5005554;28;20389;-58
2021/03/17 00:05:48;;;;;;;;;;;7.30;83.70;;;;;;4990606;28;19917;-57
2021/03/17 00:08:14;;;;;;;;;;;7.30;83.60;;;;;;4989315;28;20396;-57
2021/03/17 00:10:41;;;;;;;;;;;7.30;83.60;;;;;;4989676;28;19910;-58
2021/03/17 00:13:06;;;;;;;;;;;7.30;83.60;;;;;;4990421;28;19932;-58
2021/03/17 00:15:33;;;;;;;;;;;7.30;83.60;;;;;;5005189;28;20361;-57
2021/03/17 00:17:58;;;;;;;;;;;7.30;83.60;;;;;;4988247;28;19925;-58
2021/03/17 00:20:24;;;;;;;;;;;7.20;83.70;;;;;;4989454;28;19994;-57
2021/03/17 00:22:50;;;;;;;;;;;7.20;83.60;;;;;;5005780;28;20199;-57
2021/03/17 00:25:16;;;;;;;;;;;7.20;83.60;;;;;;4990493;28;20024;-56
2021/03/17 00:27:41;;;;;;;;;;;7.30;83.80;;;;;;4988628;28;20025;-58
2021/03/17 00:30:07;;;;;;;;;;;7.30;83.70;;;;;;4990445;28;19960;-57
2021/03/17 00:32:32;;;;;;;;;;;7.20;83.70;;;;;;4988406;28;19916;-58
2021/03/17 00:34:58;;;;;;;;;;;7.20;83.70;;;;;;4990501;28;19909;-56
2021/03/17 00:37:23;;;;;;;;;;;7.20;84.50;;;;;;4988854;28;19940;-56
2021/03/17 00:39:49;;;;;;;;;;;7.20;83.80;;;;;;4990286;28;20008;-57
2021/03/17 00:42:14;;;;;;;;;;;7.20;83.80;;;;;;5005225;28;20004;-58
2021/03/17 00:44:40;;;;;;;;;;;7.20;83.90;;;;;;4988577;28;19917;-56
2021/03/17 00:47:05;;;;;;;;;;;7.10;83.80;;;;;;4990440;28;19961;-56
2021/03/17 00:49:30;;;;;;;;;;;7.20;83.90;;;;;;4990015;28;19956;-55
2021/03/17 00:51:56;;;;;;;;;;;7.10;84.00;;;;;;4990980;28;19934;-56
2021/03/17 00:54:22;;;;;;;;;;;7.20;83.90;;;;;;4990289;28;20351;-56
2021/03/17 00:56:47;;;;;;;;;;;7.10;83.90;;;;;;4989291;28;19917;-57
2021/03/17 00:59:13;;;;;;;;;;;7.10;84.00;;;;;;4989913;28;19914;-58
2021/03/17 01:01:38;;;;;;;;;;;7.10;84.00;;;;;;4990222;28;20008;-56
2021/03/17 01:04:04;;;;;;;;;;;7.10;84.00;;;;;;4990318;28;19932;-56
2021/03/17 01:06:29;;;;;;;;;;;7.10;83.90;;;;;;4990701;28;20000;-58
2021/03/17 01:08:55;;;;;;;;;;;7.10;84.00;;;;;;4989657;28;20303;-57
2021/03/17 01:11:20;;;;;;;;;;;7.10;84.00;;;;;;4988607;28;19916;-57
2021/03/17 01:13:46;;;;;;;;;;;7.10;84.00;;;;;;4990063;28;19910;-56
2021/03/17 01:16:12;;;;;;;;;;;7.10;84.00;;;;;;4989294;28;20353;-57
2021/03/17 01:18:37;;;;;;;;;;;7.10;84.20;;;;;;4996279;28;19958;-56
2021/03/17 01:21:03;;;;;;;;;;;7.00;84.10;;;;;;4989381;28;19956;-56
2021/03/17 01:23:28;;;;;;;;;;;7.10;84.10;;;;;;4994895;28;19914;-58
2021/03/17 01:25:53;;;;;;;;;;;7.00;84.10;;;;;;4989125;28;19914;-59
2021/03/17 01:28:19;;;;;;;;;;;7.00;84.00;;;;;;4991484;28;20029;-57
2021/03/17 01:30:49;;;;;;;;;;;7.00;84.00;;;;;;4999131;28;20334;-59
2021/03/17 01:33:15;;;;;;;;;;;7.00;84.10;;;;;;4993474;28;19920;-58
2021/03/17 01:35:41;;;;;;;;;;;7.00;84.10;;;;;;4997835;28;20004;-58
2021/03/17 01:38:07;;;;;;;;;;;7.00;84.00;;;;;;5008518;28;19963;-57
2021/03/17 01:40:33;;;;;;;;;;;7.00;84.20;;;;;;4993023;28;20316;-56
2021/03/17 01:42:58;;;;;;;;;;;7.00;84.10;;;;;;4993458;28;19917;-55
2021/03/17 01:45:24;;;;;;;;;;;7.00;84.20;;;;;;4992535;28;19910;-56
2021/03/17 01:47:49;;;;;;;;;;;7.00;84.50;;;;;;4991641;28;20460;-61
2021/03/17 01:50:16;;;;;;;;;;;7.00;84.20;;;;;;4994629;28;19914;-58
2021/03/17 01:52:42;;;;;;;;;;;7.00;84.10;;;;;;4992823;28;19910;-57
2021/03/17 01:55:08;;;;;;;;;;;7.00;84.10;;;;;;4993115;28;19916;-57
2021/03/17 01:57:33;;;;;;;;;;;7.00;84.20;;;;;;4993213;28;19965;-56
2021/03/17 01:59:59;;;;;;;;;;;7.00;84.30;;;;;;4991397;28;20004;-57
2021/03/17 02:02:25;;;;;;;;;;;6.90;84.20;;;;;;4997395;28;19914;-56
2021/03/17 02:04:50;;;;;;;;;;;6.90;84.10;;;;;;4992083;28;19943;-55
2021/03/17 02:07:15;;;;;;;;;;;6.90;84.30;;;;;;4993059;28;19910;-58
2021/03/17 02:09:41;;;;;;;;;;;6.90;84.30;;;;;;4992163;28;20029;-58
2021/03/17 02:12:17;;;;;;;;;;;6.90;84.30;;;;;;4997965;28;20005;-56
2021/03/17 02:14:49;;;;;;;;;;;6.90;84.30;;;;;;5006394;28;19976;-57
2021/03/17 02:17:16;;;;;;;;;;;6.90;84.10;;;;;;4992572;28;19913;-56
2021/03/17 02:20:01;;;;;;;;;;;6.90;84.20;;;;;;5008008;28;19917;-56
2021/03/17 02:22:35;;;;;;;;;;;6.90;84.30;;;;;;5008143;28;19925;-57
2021/03/17 02:25:19;;;;;;;;;;;6.90;84.30;;;;;;4997669;28;19973;-57
2021/03/17 02:28:09;;;;;;;;;;;6.90;84.30;;;;;;4992072;28;19971;-57
2021/03/17 02:30:37;;;;;;;;;;;6.90;84.30;;;;;;4992450;28;20257;-57
2021/03/17 02:33:21;;;;;;;;;;;6.90;84.40;;;;;;4992645;28;20223;-58
2021/03/17 02:35:47;;;;;;;;;;;6.90;84.30;;;;;;4992417;28;19960;-57
2021/03/17 02:38:12;;;;;;;;;;;6.90;84.30;;;;;;5006208;28;19942;-58
2021/03/17 02:40:38;;;;;;;;;;;6.90;84.40;;;;;;5006585;28;20404;-58
2021/03/17 02:43:22;;;;;;;;;;;6.90;84.30;;;;;;5000432;28;20241;-57
2021/03/17 02:45:54;;;;;;;;;;;6.90;84.30;;;;;;4983286;28;19916;-58
2021/03/17 02:48:23;;;;;;;;;;;6.80;84.40;;;;;;4992132;28;19910;-57
2021/03/17 02:50:49;;;;;;;;;;;6.90;84.30;;;;;;4999882;28;20289;-57
2021/03/17 02:53:15;;;;;;;;;;;6.90;84.20;;;;;;5006008;28;19910;-56
2021/03/17 02:55:43;;;;;;;;;;;6.80;84.40;;;;;;5001096;28;19914;-59
2021/03/17 02:58:08;;;;;;;;;;;6.80;84.50;;;;;;5003246;28;20304;-57
2021/03/17 03:00:34;;;;;;;;;;;6.80;84.50;;;;;;5001763;28;19917;-56
2021/03/17 03:02:59;;;;;;;;;;;6.80;84.40;;;;;;4989909;28;19922;-56
2021/03/17 03:05:26;;;;;;;;;;;6.80;84.50;;;;;;4991616;28;19909;-57
2021/03/17 03:07:52;;;;;;;;;;;6.80;84.60;;;;;;5001906;28;20373;-57
2021/03/17 03:10:18;;;;;;;;;;;6.80;84.50;;;;;;5001522;28;19932;-57
2021/03/17 03:12:44;;;;;;;;;;;6.80;84.50;;;;;;5001399;28;20384;-57
2021/03/17 03:15:10;;;;;;;;;;;6.80;84.50;;;;;;4990670;28;20005;-58
2021/03/17 03:17:36;;;;;;;;;;;6.80;84.40;;;;;;5003028;28;19922;-57
2021/03/17 03:20:01;;;;;;;;;;;6.80;84.60;;;;;;4992012;28;19975;-56
2021/03/17 03:22:27;;;;;;;;;;;6.70;84.60;;;;;;5005119;28;19972;-56
2021/03/17 03:24:53;;;;;;;;;;;6.80;84.60;;;;;;5006803;28;19914;-58
2021/03/17 03:27:18;;;;;;;;;;;6.80;84.50;;;;;;4999958;28;19918;-56
2021/03/17 03:29:44;;;;;;;;;;;6.80;84.60;;;;;;5005247;28;19933;-56
2021/03/17 03:32:09;;;;;;;;;;;6.80;84.40;;;;;;5006446;28;19961;-58
2021/03/17 03:34:34;;;;;;;;;;;6.80;84.50;;;;;;4991731;28;20000;-55
2021/03/17 03:37:00;;;;;;;;;;;6.70;84.60;;;;;;4991521;28;19949;-56
2021/03/17 03:39:25;;;;;;;;;;;6.80;84.70;;;;;;4991283;28;19920;-56
2021/03/17 03:41:51;;;;;;;;;;;6.80;84.70;;;;;;4989353;28;19938;-58
2021/03/17 03:44:17;;;;;;;;;;;6.70;84.70;;;;;;4991025;28;20423;-57
2021/03/17 03:46:42;;;;;;;;;;;6.80;84.70;;;;;;5005758;28;19917;-58
2021/03/17 03:49:07;;;;;;;;;;;6.80;84.50;;;;;;4991244;28;19910;-58
2021/03/17 03:51:33;;;;;;;;;;;6.70;84.70;;;;;;5005679;28;20304;-57
2021/03/17 03:54:17;;;;;;;;;;;6.70;85.20;;;;;;5004843;28;19913;-57
2021/03/17 03:56:55;;;;;;;;;;;6.70;84.70;;;;;;4990790;28;20008;-56
2021/03/17 03:59:26;;;;;;;;;;;6.70;84.50;;;;;;4991138;28;19984;-58
2021/03/17 04:01:59;;;;;;;;;;;6.80;84.70;;;;;;5006002;28;19910;-58
2021/03/17 04:04:26;;;;;;;;;;;6.70;84.70;;;;;;5005735;28;19926;-57
2021/03/17 04:06:52;;;;;;;;;;;6.70;84.60;;;;;;4989518;28;19913;-56
2021/03/17 04:09:28;;;;;;;;;;;6.70;84.50;;;;;;5005810;28;19996;-55
2021/03/17 04:12:00;;;;;;;;;;;6.70;84.50;;;;;;5005365;28;19976;-55
2021/03/17 04:14:26;;;;;;;;;;;6.70;84.60;;;;;;5005715;28;20405;-57
2021/03/17 04:16:51;;;;;;;;;;;6.70;84.70;;;;;;4990561;28;19928;-58
2021/03/17 04:19:17;;;;;;;;;;;6.70;84.90;;;;;;5003865;28;19996;-56
2021/03/17 04:21:42;;;;;;;;;;;6.70;84.90;;;;;;5005517;28;19910;-56
2021/03/17 04:24:08;;;;;;;;;;;6.70;84.90;;;;;;5005485;28;19996;-56
2021/03/17 04:26:33;;;;;;;;;;;6.70;85.00;;;;;;5005189;28;19914;-55
2021/03/17 04:28:59;;;;;;;;;;;6.70;85.20;;;;;;5005336;28;19910;-57
2021/03/17 04:31:24;;;;;;;;;;;6.70;84.90;;;;;;4988097;28;19917;-57
2021/03/17 04:33:50;;;;;;;;;;;6.70;85.00;;;;;;5004902;28;20418;-57
2021/03/17 04:36:15;;;;;;;;;;;6.60;85.00;;;;;;5005637;28;20115;-57
2021/03/17 04:38:41;;;;;;;;;;;6.70;85.00;;;;;;5013901;28;19921;-56
2021/03/17 04:41:06;;;;;;;;;;;6.70;85.00;;;;;;4990232;28;20363;-57
2021/03/17 04:43:32;;;;;;;;;;;6.70;85.10;;;;;;5004934;28;19999;-57
2021/03/17 04:45:59;;;;;;;;;;;6.60;85.10;;;;;;5004171;28;19914;-56
2021/03/17 04:48:24;;;;;;;;;;;6.60;85.10;;;;;;4990495;28;20419;-56
2021/03/17 04:50:50;;;;;;;;;;;6.60;85.10;;;;;;5006055;28;19910;-56
2021/03/17 04:53:15;;;;;;;;;;;6.60;85.20;;;;;;5005820;28;19916;-56
2021/03/17 04:55:41;;;;;;;;;;;6.60;85.20;;;;;;5004781;28;19914;-56
2021/03/17 04:58:10;;;;;;;;;;;6.60;85.20;;;;;;4988532;28;19943;-57
2021/03/17 05:00:36;;;;;;;;;;;6.60;85.20;;;;;;5005250;28;20021;-55
2021/03/17 05:03:01;;;;;;;;;;;6.60;85.90;;;;;;5005718;28;19938;-59
2021/03/17 05:05:27;;;;;;;;;;;6.60;85.30;;;;;;4994723;28;19914;-58
2021/03/17 05:07:53;;;;;;;;;;;6.60;85.30;;;;;;4994236;28;19997;-57
2021/03/17 05:10:18;;;;;;;;;;;6.60;85.20;;;;;;5007513;28;19909;-58
2021/03/17 05:12:44;;;;;;;;;;;6.60;85.40;;;;;;4993580;28;20351;-57
2021/03/17 05:15:09;;;;;;;;;;;6.60;85.30;;;;;;5007621;28;19949;-57
2021/03/17 05:17:35;;;;;;;;;;;6.60;85.40;;;;;;4993702;28;19917;-56
2021/03/17 05:20:02;;;;;;;;;;;6.60;85.60;;;;;;5005161;28;19911;-55
2021/03/17 05:22:28;;;;;;;;;;;6.60;85.50;;;;;;4988886;28;19949;-58
2021/03/17 05:24:53;;;;;;;;;;;6.60;85.40;;;;;;4994187;28;20279;-58
2021/03/17 05:27:19;;;;;;;;;;;6.50;85.40;;;;;;4993495;28;19910;-56
2021/03/17 05:29:45;;;;;;;;;;;6.50;85.50;;;;;;4993915;28;19960;-56
2021/03/17 05:32:11;;;;;;;;;;;6.50;85.50;;;;;;4993841;28;20394;-55
2021/03/17 05:34:39;;;;;;;;;;;6.50;85.40;;;;;;4992764;28;19913;-57
2021/03/17 05:37:05;;;;;;;;;;;6.50;85.50;;;;;;5005829;28;19914;-59
2021/03/17 05:39:30;;;;;;;;;;;6.50;85.40;;;;;;4993634;28;19910;-58
2021/03/17 05:41:55;;;;;;;;;;;6.50;85.40;;;;;;4993133;28;19910;-58
2021/03/17 05:44:21;;;;;;;;;;;6.50;85.50;;;;;;5011228;28;19953;-57
2021/03/17 05:46:46;;;;;;;;;;;6.50;85.50;;;;;;5005391;28;19914;-56
2021/03/17 05:49:12;;;;;;;;;;;6.50;85.40;;;;;;4992231;28;19917;-55
2021/03/17 05:51:37;;;;;;;;;;;6.50;85.60;;;;;;4993000;28;20431;-58
2021/03/17 05:54:04;;;;;;;;;;;6.50;85.30;;;;;;5004198;28;19925;-56
2021/03/17 05:56:30;;;;;;;;;;;6.50;85.40;;;;;;4992615;28;19914;-57
2021/03/17 05:58:55;;;;;;;;;;;6.50;85.70;;;;;;5003928;28;19921;-56
2021/03/17 06:01:21;;;;;;;;;;;6.50;85.60;;;;;;5004184;28;19922;-58
2021/03/17 06:03:46;;;;;;;;;;;6.50;85.50;;;;;;5009674;28;19926;-56
2021/03/17 06:06:13;;;;;;;;;;;6.50;85.70;;;;;;5008092;28;20443;-55
2021/03/17 06:08:39;;;;;;;;;;;6.50;85.50;;;;;;4992814;28;20028;-56
2021/03/17 06:11:14;;;;;;;;;;;6.50;85.70;;;;;;5007837;28;19953;-56
2021/03/17 06:13:40;;;;;;;;;;;6.50;85.80;;;;;;5006026;28;19924;-56
2021/03/17 06:16:05;;;;;;;;;;;6.40;85.80;;;;;;5007582;28;20343;-57
2021/03/17 06:18:41;;;;;;;;;;;6.50;85.70;;;;;;5008358;28;20459;-56
2021/03/17 06:21:06;;;;;;;;;;;6.50;85.50;;;;;;5008227;28;19910;-57
2021/03/17 06:23:32;;;;;;;;;;;6.40;85.60;;;;;;4992659;28;20005;-56
2021/03/17 06:25:57;;;;;;;;;;;6.40;85.70;;;;;;4990895;28;19910;-56
2021/03/17 06:28:23;;;;;;;;;;;6.40;85.90;;;;;;4992444;28;20380;-57
2021/03/17 06:30:48;;;;;;;;;;;6.40;85.90;;;;;;5007273;28;19914;-58
2021/03/17 06:33:14;;;;;;;;;;;6.50;85.70;;;;;;4992484;28;20296;-57
2021/03/17 06:35:39;;;;;;;;;;;6.40;85.60;;;;;;4992532;28;19914;-56
2021/03/17 06:38:05;;;;;;;;;;;6.40;85.70;;;;;;4990742;28;20008;-57
2021/03/17 06:40:30;;;;;;;;;;;6.40;85.50;;;;;;4991772;28;19929;-58
2021/03/17 06:43:02;;;;;;;;;;;6.40;85.80;;;;;;5003693;28;19999;-57
2021/03/17 06:45:28;;;;;;;;;;;6.50;85.60;;;;;;5005188;28;19968;-55
2021/03/17 06:47:53;;;;;;;;;;;6.50;85.50;;;;;;4991157;28;19914;-56
2021/03/17 06:50:26;;;;;;;;;;;6.50;85.50;;;;;;4991406;28;19924;-56
2021/03/17 06:52:51;;;;;;;;;;;6.40;85.60;;;;;;5001323;28;20004;-57
2021/03/17 06:55:18;;;;;;;;;;;6.50;85.70;;;;;;4989992;28;19968;-56
2021/03/17 06:57:44;;;;;;;;;;;6.40;85.70;;;;;;5001294;28;19929;-56
2021/03/17 07:00:17;;;;;;;;;;;6.40;86.40;;;;;;4991846;28;20320;-55
2021/03/17 07:02:52;;;;;;;;;;;6.40;85.80;;;;;;4985311;28;19918;-57
2021/03/17 07:05:18;;;;;;;;;;;6.40;85.80;;;;;;5004060;28;19914;-56
2021/03/17 07:07:47;;;;;;;;;;;6.40;85.90;;;;;;5006398;28;20048;-59
2021/03/17 07:10:12;;;;;;;;;;;6.40;85.90;;;;;;5012969;28;20254;-57
2021/03/17 07:12:38;;;;;;;;;;;6.40;85.90;;;;;;4989151;28;19921;-58
2021/03/17 07:15:09;;;;;;;;;;;6.40;85.90;;;;;;5002377;28;19940;-55
2021/03/17 07:17:35;;;;;;;;;;;6.40;85.70;;;;;;5003078;28;19925;-58
2021/03/17 07:20:05;;;;;;;;;;;6.40;86.50;;;;;;5001086;28;19914;-56
2021/03/17 07:22:30;;;;;;;;;;;6.40;85.90;;;;;;4989268;28;19913;-57
2021/03/17 07:24:59;;;;;;;;;;;6.40;85.80;;;;;;5006936;28;19914;-56
2021/03/17 07:27:25;;;;;;;;;;;6.40;85.80;;;;;;5006099;28;19932;-56
2021/03/17 07:29:57;;;;;;;;;;;6.40;85.70;;;;;;4990121;28;19932;-55
2021/03/17 07:32:22;;;;;;;;;;;6.40;85.70;;;;;;4990479;28;20405;-56
2021/03/17 07:34:48;;;;;;;;;;;6.40;85.70;;;;;;4989525;28;19917;-58
2021/03/17 07:37:13;;;;;;;;;;;6.40;85.70;;;;;;4991109;28;19937;-58
2021/03/17 07:39:39;;;;;;;;;;;6.40;85.70;;;;;;4989552;28;20285;-57
2021/03/17 07:42:11;;;;;;;;;;;6.40;85.60;;;;;;5004876;28;19914;-56
2021/03/17 07:44:41;;;;;;;;;;;6.40;85.70;;;;;;5004875;28;20020;-56
2021/03/17 07:47:07;;;;;;;;;;;6.40;85.70;;;;;;4986636;28;19921;-58
2021/03/17 07:49:33;;;;;;;;;;;6.50;85.70;;;;;;4989929;28;19924;-57
2021/03/17 07:52:02;;;;;;;;;;;6.50;85.70;;;;;;4991331;28;19916;-56
2021/03/17 07:54:28;;;;;;;;;;;6.50;85.70;;;;;;4989779;28;20033;-56
2021/03/17 07:56:54;;;;;;;;;;;6.50;85.70;;;;;;4981175;28;19921;-56
2021/03/17 07:59:22;;;;;;;;;;;6.50;85.70;;;;;;4993908;28;20316;-57
2021/03/17 08:01:47;;;;;;;;;;;6.40;85.70;;;;;;4988893;28;20731;-57
2021/03/17 08:04:16;;;;;;;;;;;6.40;85.70;;;;;;5003964;28;19930;-58
2021/03/17 08:06:41;;;;;;;;;;;6.50;85.70;;;;;;4989691;28;19924;-56
2021/03/17 08:09:07;;;;;;;;;;;6.50;85.70;;;;;;4984549;28;19917;-58
2021/03/17 08:11:32;;;;;;;;;;;6.50;85.80;;;;;;4984681;28;19918;-58
2021/03/17 08:13:58;;;;;;;;;;;6.40;85.90;;;;;;4989424;28;20270;-57
2021/03/17 08:16:27;;;;;;;;;;;6.50;85.90;;;;;;4998896;28;19925;-57
2021/03/17 08:18:53;;;;;;;;;;;6.50;85.90;;;;;;4997716;28;19929;-59
2021/03/17 08:21:38;;;;;;;;;;;6.50;85.90;;;;;;4986855;28;19914;-56
2021/03/17 08:24:04;;;;;;;;;;;6.50;85.90;;;;;;4983433;28;19949;-57
2021/03/17 08:26:29;;;;;;;;;;;6.50;86.00;;;;;;4982224;28;19953;-58
2021/03/17 08:28:56;;;;;;;;;;;6.50;85.90;;;;;;4989894;28;20001;-56
2021/03/17 08:31:36;;;;;;;;;;;6.50;85.80;;;;;;5002262;28;19921;-58
2021/03/17 08:34:20;;;;;;;;;;;6.50;85.90;;;;;;4983898;28;19921;-57
2021/03/17 08:36:46;;;;;;;;;;;6.50;85.90;;;;;;4985696;28;19917;-56
2021/03/17 08:39:11;;;;;;;;;;;6.50;85.80;;;;;;4982896;28;19922;-56
2021/03/17 08:41:43;;;;;;;;;;;6.50;85.80;;;;;;4984675;28;19921;-57
2021/03/17 08:44:12;;;;;;;;;;;6.50;85.80;;;;;;4989771;28;19922;-58
2021/03/17 08:46:38;;;;;;;;;;;6.60;86.00;;;;;;4988838;28;19913;-59
2021/03/17 08:49:04;;;;;;;;;;;6.50;86.00;;;;;;4988887;28;19918;-58
2021/03/17 08:51:48;;;;;;;;;;;6.60;85.90;;;;;;4996582;28;20021;-56
2021/03/17 08:54:29;;;;;;;;;;;6.60;86.00;;;;;;5002111;28;20390;-57
2021/03/17 08:56:54;;;;;;;;;;;6.60;86.00;;;;;;4985193;28;19918;-57
2021/03/17 08:59:20;;;;;;;;;;;6.50;86.10;;;;;;4982945;28;19921;-57
2021/03/17 09:01:45;;;;;;;;;;;6.60;86.10;;;;;;4983198;28;20513;-58
2021/03/17 09:04:10;;;;;;;;;;;6.60;86.20;;;;;;5003006;28;19933;-60
2021/03/17 09:06:36;;;;;;;;;;;6.60;86.20;;;;;;4987256;28;19919;-56
2021/03/17 09:09:05;;;;;;;;;;;6.60;86.20;;;;;;4988102;28;20021;-58
2021/03/17 09:11:30;;;;;;;;;;;6.60;86.20;;;;;;4988418;28;19914;-58
2021/03/17 09:13:56;;;;;;;;;;;6.60;86.20;;;;;;4982903;28;19921;-57
2021/03/17 09:16:22;;;;;;;;;;;6.60;86.20;;;;;;4983920;28;19921;-57
2021/03/17 09:19:06;;;;;;;;;;;6.60;86.20;;;;;;4979893;28;19917;-58
2021/03/17 09:21:32;;;;;;;;;;;6.70;86.20;;;;;;4988870;28;20000;-57
2021/03/17 09:23:57;;;;;;;;;;;6.70;86.20;;;;;;4983640;28;19945;-56
2021/03/17 09:26:26;;;;;;;;;;;6.70;86.30;;;;;;4984332;28;19937;-56
2021/03/17 09:28:52;;;;;;;;;;;6.70;86.20;;;;;;5001695;28;19917;-59
2021/03/17 09:31:17;;;;;;;;;;;6.70;86.20;;;;;;4983595;28;19937;-57
2021/03/17 09:33:43;;;;;;;;;;;6.70;86.20;;;;;;4986624;28;19921;-56
2021/03/17 09:36:09;;;;;;;;;;;6.70;86.10;;;;;;4987317;28;19918;-58
2021/03/17 09:38:42;;;;;;;;;;;6.70;86.10;;;;;;4981456;28;19918;-59
2021/03/17 09:41:11;;;;;;;;;;;6.70;86.00;;;;;;4983311;28;19965;-59
2021/03/17 09:43:37;;;;;;;;;;;6.80;86.00;;;;;;4986339;28;20419;-61
2021/03/17 09:46:19;;;;;;;;;;;6.80;86.10;;;;;;4980851;28;20464;-56
2021/03/17 09:48:45;;;;;;;;;;;6.80;86.00;;;;;;4991796;28;20042;-59
2021/03/17 09:51:13;;;;;;;;;;;6.80;86.00;;;;;;4978232;28;19984;-59
2021/03/17 09:53:39;;;;;;;;;;;6.90;86.00;;;;;;4984865;28;19918;-58
2021/03/17 09:56:04;;;;;;;;;;;6.90;86.10;;;;;;5002581;28;20492;-57
2021/03/17 09:58:30;;;;;;;;;;;6.90;86.10;;;;;;4990054;28;19957;-56
2021/03/17 10:00:56;;;;;;;;;;;7.00;86.10;;;;;;4985035;28;19965;-58
2021/03/17 10:03:21;;;;;;;;;;;6.90;85.90;;;;;;4986504;28;19922;-56
2021/03/17 10:05:46;;;;;;;;;;;6.90;85.90;;;;;;4990440;28;19914;-58
2021/03/17 10:08:14;;;;;;;;;;;6.90;86.00;;;;;;4987359;28;19976;-58
2021/03/17 10:10:39;;;;;;;;;;;6.90;85.90;;;;;;4986850;28;20372;-60
2021/03/17 10:13:05;;;;;;;;;;;6.90;86.00;;;;;;4990052;28;19965;-57
2021/03/17 10:15:30;;;;;;;;;;;7.00;86.10;;;;;;5003934;28;20288;-56
2021/03/17 10:17:57;;;;;;;;;;;6.90;86.10;;;;;;5003188;28;19918;-57
2021/03/17 10:20:26;;;;;;;;;;;7.00;86.10;;;;;;5003332;28;19963;-59
2021/03/17 10:22:55;;;;;;;;;;;7.00;86.10;;;;;;4987481;28;19920;-60
2021/03/17 10:25:21;;;;;;;;;;;7.00;86.00;;;;;;4989227;28;19949;-56
2021/03/17 10:27:50;;;;;;;;;;;7.10;85.90;;;;;;4987646;28;20404;-59
2021/03/17 10:30:16;;;;;;;;;;;7.10;85.80;;;;;;5000782;28;19965;-59
2021/03/17 10:32:42;;;;;;;;;;;7.10;85.80;;;;;;5001877;28;19982;-59
2021/03/17 10:35:11;;;;;;;;;;;7.10;85.70;;;;;;5003923;28;20295;-58
2021/03/17 10:37:37;;;;;;;;;;;7.20;85.60;;;;;;4990398;28;19917;-57
2021/03/17 10:40:06;;;;;;;;;;;7.20;85.50;;;;;;4979556;28;19915;-58
2021/03/17 10:42:32;;;;;;;;;;;7.30;85.40;;;;;;4988083;28;19913;-58
2021/03/17 10:45:03;;;;;;;;;;;7.30;85.40;;;;;;4985354;28;19974;-59
2021/03/17 10:47:28;;;;;;;;;;;7.30;85.30;;;;;;4994024;28;20277;-59
2021/03/17 10:49:53;;;;;;;;;;;7.30;85.20;;;;;;4982652;28;20374;-58
2021/03/17 10:52:19;;;;;;;;;;;7.30;85.20;;;;;;4984617;28;19917;-59
2021/03/17 10:54:45;;;;;;;;;;;7.40;85.20;;;;;;4990791;28;20141;-57
2021/03/17 10:57:20;;;;;;;;;;;7.40;84.90;;;;;;4993037;28;19918;-58
2021/03/17 10:59:45;;;;;;;;;;;7.40;84.90;;;;;;4984046;28;19953;-57
2021/03/17 11:02:24;;;;;;;;;;;7.50;84.90;;;;;;4985576;28;20289;-57
2021/03/17 11:05:05;;;;;;;;;;;7.50;84.70;;;;;;4999531;28;20216;-59
2021/03/17 11:07:46;;;;;;;;;;;7.50;84.70;;;;;;4989915;28;19914;-57
2021/03/17 11:10:31;;;;;;;;;;;7.50;84.60;;;;;;4988193;28;20363;-58
2021/03/17 11:12:56;;;;;;;;;;;7.60;84.60;;;;;;4984114;28;20385;-59
2021/03/17 11:15:25;;;;;;;;;;;7.60;84.60;;;;;;4986957;28;19920;-58
2021/03/17 11:17:51;;;;;;;;;;;7.60;84.70;;;;;;5002978;28;20007;-58
2021/03/17 11:20:17;;;;;;;;;;;7.70;84.60;;;;;;5005121;28;19924;-57
2021/03/17 11:22:42;;;;;;;;;;;7.70;84.60;;;;;;5005498;28;19914;-57
2021/03/17 11:25:08;;;;;;;;;;;7.70;84.50;;;;;;4989540;28;19909;-57
2021/03/17 11:27:33;;;;;;;;;;;7.80;84.40;;;;;;4989641;28;19980;-59
2021/03/17 11:29:59;;;;;;;;;;;7.80;84.30;;;;;;4986089;28;19969;-57
2021/03/17 11:32:28;;;;;;;;;;;7.80;84.40;;;;;;4988218;28;19914;-59
2021/03/17 11:34:53;;;;;;;;;;;7.80;84.40;;;;;;5005397;28;20230;-58
2021/03/17 11:37:19;;;;;;;;;;;7.80;84.50;;;;;;4989911;28;19929;-57
2021/03/17 11:39:44;;;;;;;;;;;7.90;84.70;;;;;;4989108;28;19913;-59
2021/03/17 11:42:10;;;;;;;;;;;7.90;85.30;;;;;;4984394;28;19918;-57
2021/03/17 11:44:35;;;;;;;;;;;7.90;84.70;;;;;;4988803;28;19924;-59
2021/03/17 11:47:01;;;;;;;;;;;7.90;84.50;;;;;;4989779;28;20414;-58
2021/03/17 11:49:26;;;;;;;;;;;7.90;84.50;;;;;;4989872;28;19914;-60
2021/03/17 11:51:51;;;;;;;;;;;8.00;84.60;;;;;;4985540;28;19918;-59
2021/03/17 11:54:17;;;;;;;;;;;8.00;84.50;;;;;;4982977;28;20376;-59
2021/03/17 11:56:42;;;;;;;;;;;8.00;84.50;;;;;;4991080;28;19914;-60
2021/03/17 11:59:08;;;;;;;;;;;8.00;84.30;;;;;;5005199;28;19918;-59
2021/03/17 12:01:33;;;;;;;;;;;8.00;84.30;;;;;;4988012;28;19922;-58
2021/03/17 12:03:59;;;;;;;;;;;8.00;84.50;;;;;;4986625;28;19973;-57
2021/03/17 12:06:25;;;;;;;;;;;8.10;84.60;;;;;;5003070;28;20299;-58
2021/03/17 12:08:50;;;;;;;;;;;8.10;84.70;;;;;;5004274;28;19922;-59
2021/03/17 12:11:16;;;;;;;;;;;8.10;84.70;;;;;;5002682;28;20263;-58
2021/03/17 12:13:41;;;;;;;;;;;8.10;84.50;;;;;;5002447;28;19960;-59
2021/03/17 12:16:07;;;;;;;;;;;8.10;84.40;;;;;;4988432;28;19920;-58
2021/03/17 12:18:32;;;;;;;;;;;8.20;84.30;;;;;;4986811;28;20280;-57
2021/03/17 12:20:58;;;;;;;;;;;8.20;84.40;;;;;;5002751;28;19920;-59
2021/03/17 12:23:23;;;;;;;;;;;8.20;84.20;;;;;;4975081;28;19918;-60
2021/03/17 12:25:49;;;;;;;;;;;8.20;84.10;;;;;;4981629;28;19956;-57
2021/03/17 12:28:14;;;;;;;;;;;8.30;84.20;;;;;;4985393;28;20474;-59
2021/03/17 12:30:40;;;;;;;;;;;8.30;84.00;;;;;;4986760;28;19921;-60
2021/03/17 12:33:05;;;;;;;;;;;8.40;84.20;;;;;;4984327;28;19972;-59
2021/03/17 12:35:31;;;;;;;;;;;8.40;84.10;;;;;;4985594;28;20046;-60
2021/03/17 12:37:56;;;;;;;;;;;8.50;84.00;;;;;;4985908;28;20296;-58
2021/03/17 12:40:23;;;;;;;;;;;8.40;83.90;;;;;;4987446;28;19968;-57
2021/03/17 12:42:49;;;;;;;;;;;8.50;83.90;;;;;;4985171;28;19921;-60
2021/03/17 12:45:18;;;;;;;;;;;8.50;83.90;;;;;;4983525;28;19976;-59
2021/03/17 12:47:44;;;;;;;;;;;8.50;84.00;;;;;;4999784;28;19917;-59
2021/03/17 12:50:10;;;;;;;;;;;8.50;84.10;;;;;;4984472;28;19960;-57
2021/03/17 12:52:36;;;;;;;;;;;8.50;84.20;;;;;;4988211;28;19913;-59
2021/03/17 12:55:01;;;;;;;;;;;8.50;84.20;;;;;;4988234;28;19925;-57
2021/03/17 12:57:28;;;;;;;;;;;8.50;84.40;;;;;;4983389;28;20009;-58
2021/03/17 12:59:56;;;;;;;;;;;8.50;85.00;;;;;;5003186;28;19924;-59
2021/03/17 13:02:21;;;;;;;;;;;8.50;84.50;;;;;;5002010;28;19921;-58
2021/03/17 13:04:47;;;;;;;;;;;8.50;84.50;;;;;;4986632;28;19917;-58
2021/03/17 13:07:12;;;;;;;;;;;8.50;84.60;;;;;;4988108;28;19920;-55
2021/03/17 13:09:37;;;;;;;;;;;8.50;84.70;;;;;;4999840;28;20199;-55
2021/03/17 13:12:03;;;;;;;;;;;8.50;84.80;;;;;;4985665;28;19921;-57
2021/03/17 13:14:29;;;;;;;;;;;8.60;84.80;;;;;;4983231;28;20292;-55
2021/03/17 13:16:54;;;;;;;;;;;8.50;84.80;;;;;;4983862;28;19957;-55
2021/03/17 13:19:19;;;;;;;;;;;8.50;84.80;;;;;;4987400;28;19918;-55
2021/03/17 13:21:47;;;;;;;;;;;8.50;84.80;;;;;;4984141;28;19929;-57
2021/03/17 13:24:12;;;;;;;;;;;8.50;84.80;;;;;;4988316;28;19996;-55
2021/03/17 13:26:38;;;;;;;;;;;8.50;84.80;;;;;;4984951;28;19922;-58
2021/03/17 13:29:03;;;;;;;;;;;8.50;84.80;;;;;;4986724;28;19918;-58
2021/03/17 13:31:29;;;;;;;;;;;8.50;84.80;;;;;;4990671;28;19918;-57
2021/03/17 13:33:54;;;;;;;;;;;8.50;85.40;;;;;;4988465;28;19913;-57
2021/03/17 13:36:20;;;;;;;;;;;8.50;84.80;;;;;;4988945;28;19976;-59
2021/03/17 13:38:45;;;;;;;;;;;8.50;84.70;;;;;;4990612;28;19917;-56
2021/03/17 13:41:11;;;;;;;;;;;8.60;84.70;;;;;;4992068;28;19953;-57
2021/03/17 13:43:36;;;;;;;;;;;8.60;84.60;;;;;;4990134;28;20450;-56
2021/03/17 13:46:02;;;;;;;;;;;8.60;84.50;;;;;;4998605;28;20214;-55
2021/03/17 13:48:27;;;;;;;;;;;8.60;84.50;;;;;;4997481;28;19960;-59
2021/03/17 13:50:53;;;;;;;;;;;8.60;84.60;;;;;;4988761;28;19917;-59
2021/03/17 13:53:18;;;;;;;;;;;8.60;84.60;;;;;;4989575;28;20394;-59
2021/03/17 13:55:44;;;;;;;;;;;8.50;84.70;;;;;;4987841;28;19952;-58
2021/03/17 13:58:09;;;;;;;;;;;8.60;84.80;;;;;;4989112;28;19921;-60
2021/03/17 14:00:35;;;;;;;;;;;8.60;84.80;;;;;;5001834;28;19922;-60
2021/03/17 14:03:00;;;;;;;;;;;8.60;84.70;;;;;;4987978;28;20009;-56
2021/03/17 14:05:26;;;;;;;;;;;8.60;84.60;;;;;;4987257;28;19922;-57
2021/03/17 14:07:52;;;;;;;;;;;8.60;84.50;;;;;;4983004;28;19932;-57
2021/03/17 14:10:19;;;;;;;;;;;8.60;84.50;;;;;;4987137;28;20571;-56
2021/03/17 14:12:44;;;;;;;;;;;8.60;84.40;;;;;;4974894;28;20602;-57
2021/03/17 14:15:11;;;;;;;;;;;8.60;84.40;;;;;;4989054;28;19914;-58
2021/03/17 14:17:36;;;;;;;;;;;8.60;84.40;;;;;;4999833;28;19921;-58
2021/03/17 14:20:02;;;;;;;;;;;8.70;84.40;;;;;;4995457;28;20387;-57
2021/03/17 14:22:27;;;;;;;;;;;8.70;84.50;;;;;;5003474;28;19914;-56
2021/03/17 14:24:53;;;;;;;;;;;8.70;84.50;;;;;;4988797;28;20081;-56
2021/03/17 14:27:18;;;;;;;;;;;8.70;84.40;;;;;;5001967;28;19953;-56
2021/03/17 14:29:44;;;;;;;;;;;8.70;84.40;;;;;;4986733;28;19928;-58